createdAt,value
2023-09-02T00:01:45.909Z,18.00
2023-09-02T00:04:13.805Z,18.20
2023-09-02T00:06:41.796Z,18.20
2023-09-02T00:09:09.629Z,18.10
2023-09-02T00:11:37.477Z,17.90
2023-09-02T00:14:05.478Z,18.00
2023-09-02T00:16:33.316Z,17.70
2023-09-02T00:19:05.209Z,17.90
2023-09-02T00:21:34.293Z,18.00
2023-09-02T00:24:06.563Z,18.00
2023-09-02T00:26:34.926Z,17.90
2023-09-02T00:29:03.346Z,17.90
2023-09-02T00:31:31.489Z,18.00
2023-09-02T00:33:59.399Z,18.00
2023-09-02T00:36:31.773Z,18.00
2023-09-02T00:39:00.304Z,17.90
2023-09-02T00:41:32.482Z,18.00
2023-09-02T00:44:01.045Z,18.00
2023-09-02T00:46:28.837Z,18.10
2023-09-02T00:48:56.562Z,18.00
2023-09-02T00:51:24.345Z,17.90
2023-09-02T00:53:53.515Z,17.90
2023-09-02T00:56:21.668Z,17.70
2023-09-02T00:58:49.881Z,17.80
2023-09-02T01:01:17.879Z,17.90
2023-09-02T01:03:45.813Z,17.80
2023-09-02T01:06:14.590Z,17.60
2023-09-02T01:08:42.445Z,17.20
2023-09-02T01:11:11.610Z,17.20
2023-09-02T01:13:39.561Z,17.30
2023-09-02T01:16:07.640Z,17.10
2023-09-02T01:18:36.914Z,17.30
2023-09-02T01:21:50.268Z,17.30
2023-09-02T01:24:57.673Z,17.30
2023-09-02T01:27:30.650Z,17.00
2023-09-02T01:30:03.565Z,17.40
2023-09-02T01:32:35.642Z,17.30
2023-09-02T01:35:07.191Z,17.40
2023-09-02T01:37:36.830Z,17.60
2023-09-02T01:40:09.224Z,17.30
2023-09-02T01:42:39.338Z,17.50
2023-09-02T01:45:09.326Z,17.40
2023-09-02T01:47:38.715Z,17.30
2023-09-02T01:50:09.100Z,17.50
2023-09-02T01:52:37.407Z,17.40
2023-09-02T01:55:06.103Z,17.40
2023-09-02T01:57:34.607Z,17.30
2023-09-02T02:00:06.009Z,17.40
2023-09-02T02:02:34.070Z,17.50
2023-09-02T02:05:07.171Z,17.20
2023-09-02T02:07:37.590Z,17.00
2023-09-02T02:10:10.779Z,17.20
2023-09-02T02:12:42.537Z,16.80
2023-09-02T02:15:13.154Z,17.10
2023-09-02T02:17:42.200Z,17.20
2023-09-02T02:20:11.291Z,16.60
2023-09-02T02:22:39.640Z,17.30
2023-09-02T02:25:07.805Z,17.40
2023-09-02T02:27:35.560Z,17.10
2023-09-02T02:30:04.727Z,17.30
2023-09-02T02:32:33.831Z,17.10
2023-09-02T02:35:02.142Z,16.90
2023-09-02T02:37:29.861Z,17.20
2023-09-02T02:39:57.665Z,17.10
2023-09-02T02:42:25.515Z,17.00
2023-09-02T02:44:53.286Z,17.30
2023-09-02T02:47:21.037Z,17.00
2023-09-02T02:49:50.167Z,17.00
2023-09-02T02:52:17.910Z,17.20
2023-09-02T02:54:45.717Z,17.00
2023-09-02T02:57:13.544Z,17.20
2023-09-02T02:59:41.342Z,17.30
2023-09-02T03:02:09.153Z,17.10
2023-09-02T03:04:36.909Z,16.90
2023-09-02T03:07:06.113Z,16.90
2023-09-02T03:09:33.861Z,17.10
2023-09-02T03:12:01.609Z,17.20
2023-09-02T03:14:29.376Z,17.00
2023-09-02T03:16:57.185Z,17.10
2023-09-02T03:19:25.021Z,16.90
2023-09-02T03:21:52.988Z,17.00
2023-09-02T03:24:22.117Z,16.70
2023-09-02T03:26:49.874Z,16.90
2023-09-02T03:29:17.643Z,16.80
2023-09-02T03:31:45.385Z,16.80
2023-09-02T03:34:13.196Z,16.80
2023-09-02T03:36:40.952Z,16.80
2023-09-02T03:39:08.767Z,17.10
2023-09-02T03:41:38.557Z,17.10
2023-09-02T03:44:06.708Z,17.10
2023-09-02T03:46:34.808Z,17.00
2023-09-02T03:49:02.580Z,16.90
2023-09-02T03:51:30.884Z,17.00
2023-09-02T03:53:58.638Z,16.70
2023-09-02T03:56:26.425Z,16.80
2023-09-02T03:58:55.676Z,17.00
2023-09-02T04:01:23.806Z,16.80
2023-09-02T04:03:51.696Z,17.00
2023-09-02T04:06:19.541Z,16.70
2023-09-02T04:08:47.282Z,16.80
2023-09-02T04:11:15.059Z,16.50
2023-09-02T04:13:43.316Z,16.90
2023-09-02T04:16:13.928Z,16.80
2023-09-02T04:18:41.930Z,16.60
2023-09-02T04:21:10.890Z,16.80
2023-09-02T04:23:38.781Z,16.80
2023-09-02T04:26:06.762Z,16.80
2023-09-02T04:28:34.591Z,16.90
2023-09-02T04:31:02.346Z,16.80
2023-09-02T04:33:31.547Z,16.80
2023-09-02T04:36:01.811Z,17.00
2023-09-02T04:38:29.590Z,16.80
2023-09-02T04:40:57.344Z,17.00
2023-09-02T04:43:25.473Z,17.00
2023-09-02T04:45:53.235Z,17.30
2023-09-02T04:48:21.028Z,17.00
2023-09-02T04:50:55.786Z,16.80
2023-09-02T04:53:24.248Z,17.10
2023-09-02T04:55:52.799Z,17.30
2023-09-02T04:58:21.648Z,17.20
2023-09-02T05:00:49.578Z,17.30
2023-09-02T05:03:17.838Z,17.30
2023-09-02T05:05:46.188Z,17.20
2023-09-02T05:08:15.357Z,17.50
2023-09-02T05:10:43.167Z,17.20
2023-09-02T05:13:10.993Z,17.70
2023-09-02T05:15:38.847Z,17.30
2023-09-02T05:18:06.947Z,17.50
2023-09-02T05:20:34.714Z,17.30
2023-09-02T05:23:02.521Z,17.70
2023-09-02T05:25:31.665Z,17.70
2023-09-02T05:27:59.445Z,17.50
2023-09-02T05:30:27.378Z,17.50
2023-09-02T05:32:55.239Z,17.40
2023-09-02T05:35:23.108Z,17.50
2023-09-02T05:37:50.951Z,17.50
2023-09-02T05:40:18.922Z,17.50
2023-09-02T05:42:48.062Z,17.40
2023-09-02T05:45:15.941Z,17.40
2023-09-02T05:47:43.716Z,17.70
2023-09-02T05:50:12.099Z,17.60
2023-09-02T05:52:41.520Z,17.50
2023-09-02T05:55:09.513Z,17.70
2023-09-02T05:57:37.267Z,17.80
2023-09-02T06:00:09.813Z,17.70
2023-09-02T06:02:37.600Z,18.10
2023-09-02T06:05:06.491Z,17.90
2023-09-02T06:07:34.313Z,17.60
2023-09-02T06:10:02.065Z,18.00
2023-09-02T06:12:30.664Z,17.70
2023-09-02T06:14:58.482Z,18.00
2023-09-02T06:17:31.744Z,18.10
2023-09-02T06:20:00.624Z,18.20
2023-09-02T06:22:28.709Z,18.20
2023-09-02T06:24:56.745Z,18.40
2023-09-02T06:27:24.677Z,18.60
2023-09-02T06:29:52.444Z,18.30
2023-09-02T06:32:20.673Z,18.60
2023-09-02T06:34:51.183Z,18.40
2023-09-02T06:37:19.045Z,18.90
2023-09-02T06:39:46.822Z,18.90
2023-09-02T06:42:14.640Z,19.60
2023-09-02T06:44:42.411Z,19.60
2023-09-02T06:47:10.311Z,19.40
2023-09-02T06:49:38.275Z,20.60
2023-09-02T06:52:07.503Z,21.00
2023-09-02T06:54:35.426Z,21.00
2023-09-02T06:57:03.374Z,21.20
2023-09-02T06:59:31.650Z,22.00
2023-09-02T07:01:59.484Z,23.10
2023-09-02T07:04:27.295Z,24.40
2023-09-02T07:06:55.529Z,25.90
2023-09-02T07:09:24.702Z,26.90
2023-09-02T07:11:53.781Z,27.70
2023-09-02T07:14:21.669Z,28.20
2023-09-02T07:16:52.241Z,28.60
2023-09-02T07:19:20.261Z,27.80
2023-09-02T07:21:47.993Z,27.60
2023-09-02T07:24:15.969Z,28.00
2023-09-02T07:26:45.138Z,28.70
2023-09-02T07:29:16.200Z,29.30
2023-09-02T07:31:44.556Z,29.80
2023-09-02T07:34:12.588Z,29.70
2023-09-02T07:36:40.524Z,29.20
2023-09-02T07:39:08.350Z,29.40
2023-09-02T07:41:36.174Z,30.10
2023-09-02T07:44:05.746Z,30.10
2023-09-02T07:46:33.561Z,30.40
2023-09-02T07:49:01.351Z,30.70
2023-09-02T07:51:29.206Z,29.60
2023-09-02T07:53:57.105Z,28.90
2023-09-02T07:56:24.934Z,29.40
2023-09-02T07:58:53.634Z,29.60
2023-09-02T08:01:23.833Z,29.60
2023-09-02T08:03:52.536Z,29.00
2023-09-02T08:06:21.843Z,29.00
2023-09-02T08:08:50.741Z,29.40
2023-09-02T08:11:20.062Z,30.00
2023-09-02T08:13:49.808Z,30.60
2023-09-02T08:16:18.991Z,30.90
2023-09-02T08:18:49.758Z,30.70
2023-09-02T08:21:19.136Z,30.80
2023-09-02T08:23:48.971Z,30.50
2023-09-02T08:26:17.624Z,30.30
2023-09-02T08:28:47.008Z,30.40
2023-09-02T08:31:21.437Z,30.70
2023-09-02T08:33:50.951Z,30.90
2023-09-02T08:36:19.127Z,31.30
2023-09-02T08:38:46.995Z,31.20
2023-09-02T08:41:27.190Z,31.50
2023-09-02T08:43:56.785Z,31.30
2023-09-02T08:46:28.293Z,31.70
2023-09-02T08:48:58.249Z,31.60
2023-09-02T08:51:27.349Z,31.90
2023-09-02T08:53:57.104Z,31.80
2023-09-02T08:56:25.726Z,32.10
2023-09-02T08:58:55.504Z,32.20
2023-09-02T09:01:24.924Z,32.10
2023-09-02T09:03:57.238Z,31.90
2023-09-02T09:06:27.236Z,31.90
2023-09-02T09:08:58.278Z,32.20
2023-09-02T09:11:28.755Z,32.40
2023-09-02T09:14:00.512Z,33.20
2023-09-02T09:16:32.482Z,32.90
2023-09-02T09:19:00.593Z,32.30
2023-09-02T09:21:32.116Z,32.10
2023-09-02T09:23:59.971Z,32.50
2023-09-02T09:26:28.171Z,32.60
2023-09-02T09:28:57.425Z,33.10
2023-09-02T09:31:26.669Z,33.20
2023-09-02T09:33:55.815Z,33.00
2023-09-02T09:36:24.045Z,33.00
2023-09-02T09:38:56.146Z,33.10
2023-09-02T09:41:27.019Z,32.70
2023-09-02T09:44:08.568Z,32.90
2023-09-02T09:46:37.606Z,32.90
2023-09-02T09:49:05.681Z,33.20
2023-09-02T09:51:33.551Z,32.60
2023-09-02T09:54:02.657Z,32.40
2023-09-02T09:56:30.444Z,32.40
2023-09-02T09:59:08.860Z,32.50
2023-09-02T10:01:37.648Z,32.70
2023-09-02T10:04:09.154Z,32.60
2023-09-02T10:06:39.307Z,32.80
2023-09-02T10:09:08.480Z,32.70
2023-09-02T10:11:37.225Z,32.70
2023-09-02T10:14:06.169Z,32.70
2023-09-02T10:16:36.735Z,32.70
2023-09-02T10:19:05.523Z,32.70
2023-09-02T10:21:37.198Z,33.00
2023-09-02T10:24:08.517Z,33.10
2023-09-02T10:26:46.815Z,32.80
2023-09-02T10:29:16.000Z,32.90
2023-09-02T10:31:49.610Z,33.00
2023-09-02T10:34:28.092Z,33.10
2023-09-02T10:36:58.824Z,33.20
2023-09-02T10:39:52.799Z,32.90
2023-09-02T10:42:23.028Z,32.70
2023-09-02T10:44:50.860Z,32.60
2023-09-02T10:47:18.665Z,32.90
2023-09-02T10:49:47.142Z,33.30
2023-09-02T10:52:16.308Z,33.10
2023-09-02T10:55:02.410Z,32.90
2023-09-02T10:57:32.064Z,32.20
2023-09-02T11:00:16.426Z,32.00
2023-09-02T11:02:45.655Z,32.60
2023-09-02T11:05:13.956Z,32.80
2023-09-02T11:07:42.650Z,32.90
2023-09-02T11:10:11.667Z,33.00
2023-09-02T11:13:07.102Z,33.10
2023-09-02T11:15:35.904Z,32.90
2023-09-02T11:18:29.448Z,32.60
2023-09-02T11:20:58.403Z,32.60
2023-09-02T11:23:28.974Z,32.90
2023-09-02T11:26:05.272Z,32.90
2023-09-02T11:28:34.627Z,32.90
2023-09-02T11:31:09.291Z,32.90
2023-09-02T11:33:38.495Z,33.10
2023-09-02T11:36:08.021Z,32.90
2023-09-02T11:38:36.640Z,32.60
2023-09-02T11:41:05.018Z,32.70
2023-09-02T11:43:34.863Z,32.70
2023-09-02T11:46:05.241Z,32.90
2023-09-02T11:48:33.658Z,33.10
2023-09-02T11:51:01.867Z,33.00
2023-09-02T11:53:31.511Z,32.60
2023-09-02T11:55:59.813Z,32.60
2023-09-02T11:58:27.642Z,32.30
2023-09-02T12:00:56.906Z,32.50
2023-09-02T12:03:28.659Z,32.40
2023-09-02T12:05:59.461Z,32.00
2023-09-02T12:08:28.098Z,31.90
2023-09-02T12:10:55.964Z,32.20
2023-09-02T12:13:23.999Z,32.30
2023-09-02T12:15:53.105Z,32.30
2023-09-02T12:18:23.149Z,32.40
2023-09-02T12:20:51.463Z,32.10
2023-09-02T12:23:20.242Z,32.10
2023-09-02T12:26:04.736Z,32.20
2023-09-02T12:28:32.671Z,32.40
2023-09-02T12:31:00.745Z,32.40
2023-09-02T12:33:30.009Z,32.40
2023-09-02T12:35:57.981Z,32.40
2023-09-02T12:38:25.934Z,32.50
2023-09-02T12:40:54.456Z,32.40
2023-09-02T12:43:27.798Z,32.40
2023-09-02T12:45:56.804Z,32.00
2023-09-02T12:48:25.128Z,31.80
2023-09-02T12:50:54.284Z,31.80
2023-09-02T12:53:22.499Z,31.90
2023-09-02T12:55:52.146Z,31.90
2023-09-02T12:58:20.031Z,31.80
2023-09-02T13:00:47.851Z,31.40
2023-09-02T13:03:15.987Z,31.10
2023-09-02T13:05:43.867Z,30.90
2023-09-02T13:08:14.223Z,30.60
2023-09-02T13:10:42.202Z,30.60
2023-09-02T13:13:09.991Z,30.60
2023-09-02T13:15:37.771Z,30.60
2023-09-02T13:18:06.118Z,30.90
2023-09-02T13:20:36.959Z,31.00
2023-09-02T13:23:06.466Z,31.00
2023-09-02T13:25:35.546Z,31.00
2023-09-02T13:28:03.343Z,31.00
2023-09-02T13:30:31.134Z,30.70
2023-09-02T13:33:00.293Z,30.50
2023-09-02T13:35:29.699Z,30.30
2023-09-02T13:37:57.503Z,30.10
2023-09-02T13:40:35.096Z,30.00
2023-09-02T13:43:07.870Z,29.90
2023-09-02T13:45:38.945Z,29.70
2023-09-02T13:48:09.035Z,29.70
2023-09-02T13:50:38.574Z,29.50
2023-09-02T13:53:07.146Z,29.30
2023-09-02T13:55:39.138Z,29.00
2023-09-02T13:58:11.495Z,28.80
2023-09-02T14:00:41.840Z,28.80
2023-09-02T14:03:18.830Z,28.90
2023-09-02T14:05:48.623Z,28.90
2023-09-02T14:08:19.651Z,28.70
2023-09-02T14:10:48.209Z,28.80
2023-09-02T14:13:18.904Z,29.00
2023-09-02T14:15:47.482Z,29.10
2023-09-02T14:18:15.741Z,29.20
2023-09-02T14:20:43.574Z,29.10
2023-09-02T14:23:11.393Z,29.00
2023-09-02T14:25:39.150Z,29.00
2023-09-02T14:28:07.249Z,28.90
2023-09-02T14:30:36.742Z,28.60
2023-09-02T14:33:05.020Z,28.60
2023-09-02T14:35:32.828Z,28.60
2023-09-02T14:38:00.739Z,28.50
2023-09-02T14:40:28.950Z,28.40
2023-09-02T14:42:56.729Z,28.40
2023-09-02T14:45:24.558Z,28.40
2023-09-02T14:47:53.697Z,28.50
2023-09-02T14:50:21.649Z,28.50
2023-09-02T14:52:49.377Z,28.60
2023-09-02T14:55:17.605Z,28.60
2023-09-02T14:57:45.414Z,28.40
2023-09-02T15:00:15.616Z,28.40
2023-09-02T15:02:44.637Z,28.40
2023-09-02T15:05:15.378Z,28.30
2023-09-02T15:07:44.202Z,28.20
2023-09-02T15:10:20.175Z,28.10
2023-09-02T15:12:48.055Z,28.10
2023-09-02T15:15:16.682Z,28.10
2023-09-02T15:17:44.814Z,28.10
2023-09-02T15:20:23.724Z,28.20
2023-09-02T15:22:53.823Z,28.10
2023-09-02T15:25:25.849Z,28.00
2023-09-02T15:27:54.190Z,28.10
2023-09-02T15:30:22.174Z,28.10
2023-09-02T15:32:55.854Z,28.10
2023-09-02T15:35:25.850Z,28.20
2023-09-02T15:37:53.645Z,28.20
2023-09-02T15:40:27.882Z,28.30
2023-09-02T15:42:58.210Z,28.10
2023-09-02T15:45:26.207Z,28.00
2023-09-02T15:47:54.625Z,28.00
2023-09-02T15:50:24.434Z,27.90
2023-09-02T15:52:53.363Z,27.80
2023-09-02T15:55:23.530Z,27.70
2023-09-02T15:57:52.158Z,27.60
2023-09-02T16:00:20.624Z,27.60
2023-09-02T16:02:48.918Z,27.60
2023-09-02T16:05:17.329Z,27.60
2023-09-02T16:07:48.273Z,27.60
2023-09-02T16:10:16.225Z,27.70
2023-09-02T16:12:43.986Z,27.60
2023-09-02T16:15:14.783Z,27.50
2023-09-02T16:17:42.688Z,27.50
2023-09-02T16:20:12.501Z,27.50
2023-09-02T16:22:41.621Z,27.50
2023-09-02T16:25:12.279Z,27.30
2023-09-02T16:27:41.095Z,27.30
2023-09-02T16:30:11.014Z,27.20
2023-09-02T16:32:39.238Z,27.20
2023-09-02T16:35:08.085Z,27.10
2023-09-02T16:37:41.557Z,27.10
2023-09-02T16:40:13.570Z,27.00
2023-09-02T16:42:43.075Z,27.00
2023-09-02T16:45:13.178Z,27.00
2023-09-02T16:47:46.531Z,26.90
2023-09-02T16:50:16.840Z,26.90
2023-09-02T16:52:47.048Z,26.80
2023-09-02T16:55:17.785Z,26.70
2023-09-02T16:57:48.076Z,26.60
2023-09-02T17:00:17.946Z,26.60
2023-09-02T17:02:46.864Z,26.50
2023-09-02T17:05:18.180Z,26.40
2023-09-02T17:07:47.022Z,26.40
2023-09-02T17:10:18.388Z,26.30
2023-09-02T17:12:46.768Z,26.20
2023-09-02T17:15:15.911Z,26.10
2023-09-02T17:17:46.395Z,26.00
2023-09-02T17:20:26.222Z,25.90
2023-09-02T17:22:54.405Z,25.80
2023-09-02T17:25:24.113Z,25.80
2023-09-02T17:27:58.530Z,25.70
2023-09-02T17:30:27.356Z,25.70
2023-09-02T17:32:55.586Z,25.60
2023-09-02T17:35:24.043Z,25.50
2023-09-02T17:37:51.903Z,25.50
2023-09-02T17:40:19.658Z,25.30
2023-09-02T17:42:48.857Z,25.30
2023-09-02T17:45:16.980Z,25.20
2023-09-02T17:47:46.504Z,25.20
2023-09-02T17:50:15.796Z,25.20
2023-09-02T17:52:44.837Z,25.10
2023-09-02T17:55:12.768Z,25.10
2023-09-02T17:57:40.701Z,24.90
2023-09-02T18:00:12.241Z,24.90
2023-09-02T18:02:40.599Z,24.90
2023-09-02T18:05:08.882Z,24.80
2023-09-02T18:07:38.424Z,24.70
2023-09-02T18:10:08.208Z,24.60
2023-09-02T18:12:35.994Z,24.60
2023-09-02T18:15:03.756Z,24.50
2023-09-02T18:17:32.937Z,24.40
2023-09-02T18:20:01.609Z,24.40
2023-09-02T18:22:29.663Z,24.20
2023-09-02T18:24:57.479Z,24.20
2023-09-02T18:27:26.446Z,24.20
2023-09-02T18:29:54.269Z,24.20
2023-09-02T18:32:22.083Z,24.10
2023-09-02T18:34:51.158Z,24.10
2023-09-02T18:37:18.924Z,24.10
2023-09-02T18:39:47.355Z,24.00
2023-09-02T18:42:15.145Z,24.00
2023-09-02T18:44:43.738Z,23.90
2023-09-02T18:47:11.552Z,23.90
2023-09-02T18:49:39.501Z,23.80
2023-09-02T18:52:08.856Z,23.70
2023-09-02T18:54:37.065Z,23.60
2023-09-02T18:57:06.309Z,23.60
2023-09-02T18:59:34.124Z,23.50
2023-09-02T19:02:02.032Z,23.50
2023-09-02T19:04:29.817Z,23.40
2023-09-02T19:06:57.599Z,23.40
2023-09-02T19:09:26.983Z,23.40
2023-09-02T19:11:54.813Z,23.30
2023-09-02T19:14:22.602Z,23.20
2023-09-02T19:16:50.341Z,23.10
2023-09-02T19:19:18.121Z,23.00
2023-09-02T19:21:45.947Z,22.90
2023-09-02T19:24:13.798Z,22.90
2023-09-02T19:26:43.093Z,22.80
2023-09-02T19:29:11.367Z,22.70
2023-09-02T19:31:39.144Z,23.10
2023-09-02T19:34:07.011Z,22.70
2023-09-02T19:36:34.828Z,22.70
2023-09-02T19:39:05.340Z,22.70
2023-09-02T19:41:33.583Z,22.70
2023-09-02T19:44:02.683Z,22.60
2023-09-02T19:46:30.681Z,22.60
2023-09-02T19:48:58.432Z,22.50
2023-09-02T19:51:26.534Z,22.60
2023-09-02T19:53:54.530Z,22.50
2023-09-02T19:56:22.405Z,22.40
2023-09-02T19:59:02.212Z,22.20
2023-09-02T20:01:36.639Z,22.20
2023-09-02T20:04:05.494Z,22.20
2023-09-02T20:06:34.170Z,22.10
2023-09-02T20:09:02.092Z,22.10
2023-09-02T20:11:29.959Z,22.20
2023-09-02T20:13:59.057Z,22.00
2023-09-02T20:16:27.018Z,22.00
2023-09-02T20:18:57.591Z,22.00
2023-09-02T20:21:26.705Z,22.00
2023-09-02T20:23:54.612Z,22.00
2023-09-02T20:26:22.421Z,22.00
2023-09-02T20:28:50.225Z,22.00
2023-09-02T20:31:18.736Z,21.80
2023-09-02T20:33:47.738Z,21.20
2023-09-02T20:36:17.407Z,21.70
2023-09-02T20:38:45.864Z,21.60
2023-09-02T20:41:13.981Z,21.70
2023-09-02T20:43:41.804Z,21.50
2023-09-02T20:46:12.320Z,21.70
2023-09-02T20:48:40.146Z,21.70
2023-09-02T20:51:08.203Z,21.70
2023-09-02T20:53:37.310Z,21.60
2023-09-02T20:56:05.320Z,21.70
2023-09-02T20:58:33.161Z,21.60
2023-09-02T21:01:05.000Z,21.30
2023-09-02T21:03:32.856Z,21.40
2023-09-02T21:06:00.977Z,21.30
2023-09-02T21:08:28.765Z,21.50
2023-09-02T21:11:08.849Z,21.40
2023-09-02T21:13:36.946Z,21.50
2023-09-02T21:16:04.896Z,21.50
2023-09-02T21:18:35.646Z,21.50
2023-09-02T21:21:03.456Z,21.60
2023-09-02T21:23:31.288Z,21.50
2023-09-02T21:26:09.305Z,21.30
2023-09-02T21:28:38.767Z,21.40
2023-09-02T21:31:06.847Z,21.40
2023-09-02T21:33:34.954Z,21.20
2023-09-02T21:36:03.516Z,21.10
2023-09-02T21:38:31.412Z,21.40
2023-09-02T21:41:03.137Z,21.20
2023-09-02T21:43:32.599Z,21.20
2023-09-02T21:46:01.122Z,21.00
2023-09-02T21:48:28.992Z,21.20
2023-09-02T21:51:01.133Z,21.20
2023-09-02T21:53:29.164Z,21.20
2023-09-02T21:55:56.995Z,21.20
2023-09-02T21:58:26.445Z,21.20
2023-09-02T22:01:03.178Z,21.20
2023-09-02T22:03:31.751Z,20.80
2023-09-02T22:06:08.750Z,21.20
2023-09-02T22:08:36.611Z,21.20
2023-09-02T22:11:04.692Z,20.70
2023-09-02T22:13:33.059Z,20.70
2023-09-02T22:16:02.280Z,21.10
2023-09-02T22:18:30.613Z,21.00
2023-09-02T22:20:59.499Z,20.70
2023-09-02T22:23:28.497Z,21.00
2023-09-02T22:25:59.141Z,21.10
2023-09-02T22:28:26.908Z,21.00
2023-09-02T22:30:54.818Z,21.20
2023-09-02T22:33:24.237Z,20.90
2023-09-02T22:35:52.762Z,20.50
2023-09-02T22:38:28.829Z,21.10
2023-09-02T22:41:05.146Z,20.90
2023-09-02T22:43:33.372Z,20.80
2023-09-02T22:46:01.914Z,20.70
2023-09-02T22:48:34.045Z,20.40
2023-09-02T22:51:04.220Z,20.70
2023-09-02T22:53:32.016Z,20.80
2023-09-02T22:55:59.800Z,21.00
2023-09-02T22:58:27.649Z,20.80
2023-09-02T23:00:55.541Z,20.80
2023-09-02T23:03:23.453Z,20.50
2023-09-02T23:05:52.734Z,20.90
2023-09-02T23:08:20.473Z,20.90
2023-09-02T23:10:48.202Z,20.80
2023-09-02T23:13:15.949Z,20.90
2023-09-02T23:15:43.723Z,20.80
2023-09-02T23:18:11.538Z,20.70
2023-09-02T23:20:40.647Z,20.70
2023-09-02T23:23:11.050Z,20.70
2023-09-02T23:25:39.051Z,20.60
2023-09-02T23:28:07.346Z,20.70
2023-09-02T23:30:35.160Z,20.70
2023-09-02T23:33:03.139Z,20.60
2023-09-02T23:35:30.945Z,20.50
2023-09-02T23:37:58.726Z,20.50
2023-09-02T23:40:28.073Z,20.10
2023-09-02T23:42:56.029Z,20.30
2023-09-02T23:45:23.822Z,20.20
2023-09-02T23:47:51.775Z,20.10
2023-09-02T23:50:20.686Z,20.30
2023-09-02T23:52:48.470Z,20.20
2023-09-02T23:55:16.260Z,20.50
2023-09-02T23:57:45.395Z,20.30
